Time;durP1;ratioP1;P1;durP2;ratioP2;P2;SDS_P1;SDS_P2;PMS_P1;PMS_P2;Temp;Humidity;BMP_temperature;BMP_pressure;BME280_temperature;BME280_humidity;BME280_pressure;Samples;Min_cycle;Max_cycle;Signal;HPM_P1;HPM_P2
2022/10/02 00:00:11;;;;;;;8.77;1.88;;;10.30;99.90;;;9.16;100.00;100359.47;4962898;28;20052;-73
2022/10/02 00:02:54;;;;;;;8.27;1.80;;;10.40;99.90;;;9.26;100.00;100356.31;4961005;28;20043;-74
2022/10/02 00:05:44;;;;;;;9.02;1.80;;;10.60;99.90;;;9.32;100.00;100367.19;4963245;28;20125;-75
2022/10/02 00:08:24;;;;;;;11.45;2.17;;;10.70;99.90;;;9.40;100.00;100371.53;4973642;28;20041;-75
2022/10/02 00:10:56;;;;;;;6.30;1.63;;;10.70;99.90;;;9.38;100.00;100381.81;4960285;28;20114;-74
2022/10/02 00:13:32;;;;;;;8.38;1.83;;;10.80;99.90;;;9.31;100.00;100373.69;4964597;28;20093;-75
2022/10/02 00:16:02;;;;;;;6.28;1.75;;;10.70;99.90;;;9.31;100.00;100384.56;4966507;28;20030;-74
2022/10/02 00:18:33;;;;;;;6.53;1.70;;;10.70;99.90;;;9.16;100.00;100376.66;4964122;28;20043;-75
2022/10/02 00:21:32;;;;;;;8.40;1.73;;;10.60;99.90;;;9.18;100.00;100379.16;4962262;28;20062;-76
2022/10/02 00:24:02;;;;;;;7.93;1.60;;;10.60;99.90;;;9.26;100.00;100381.63;4956406;28;20031;-74
2022/10/02 00:26:38;;;;;;;10.02;2.15;;;10.60;99.90;;;9.32;100.00;100380.78;4953510;28;20015;-74
2022/10/02 00:29:31;;;;;;;6.95;2.13;;;10.70;99.90;;;9.36;100.00;100381.19;4963110;28;20039;-74
2022/10/02 00:32:15;;;;;;;7.50;1.40;;;10.70;99.90;;;9.40;100.00;100382.41;4965928;28;20509;-75
2022/10/02 00:35:39;;;;;;;7.10;1.50;;;10.70;99.90;;;9.44;100.00;100380.09;4962712;28;20034;-75
2022/10/02 00:38:27;;;;;;;6.63;1.63;;;10.80;99.90;;;9.54;100.00;100387.81;4959695;28;20050;-74
2022/10/02 00:41:37;;;;;;;5.00;1.37;;;10.80;99.90;;;9.57;100.00;100368.31;4950885;28;20033;-75
2022/10/02 00:44:54;;;;;;;6.55;1.60;;;10.90;99.90;;;9.44;100.00;100372.78;4955482;28;21992;-75
2022/10/02 00:47:53;;;;;;;8.98;1.60;;;10.80;99.90;;;9.32;100.00;100378.06;4953383;28;20406;-75
2022/10/02 00:50:56;;;;;;;10.52;1.65;;;10.70;99.90;;;9.25;100.00;100379.13;4963906;28;20058;-76
2022/10/02 00:54:12;;;;;;;7.90;1.45;;;10.60;99.90;;;9.16;100.00;100394.88;4959666;28;20379;-75
2022/10/02 00:57:02;;;;;;;10.13;1.77;;;10.50;99.90;;;9.18;100.00;100399.06;4973659;28;20035;-75
2022/10/02 01:00:00;;;;;;;10.00;2.38;;;10.50;99.90;;;9.15;100.00;100385.03;4964624;28;20046;-77
2022/10/02 01:02:34;;;;;;;6.88;1.85;;;10.50;99.90;;;9.00;100.00;100401.59;4963274;28;20038;-76
2022/10/02 01:05:07;;;;;;;9.52;1.90;;;10.40;99.90;;;8.92;100.00;100403.50;4963598;28;20042;-76
2022/10/02 01:07:41;;;;;;;9.43;1.85;;;10.30;99.90;;;8.92;100.00;100402.66;4960224;28;20123;-75
2022/10/02 01:10:10;;;;;;;10.35;2.13;;;10.30;99.90;;;9.02;100.00;100400.34;4964281;28;20410;-74
2022/10/02 01:12:36;;;;;;;6.63;1.67;;;10.40;99.90;;;9.10;100.00;100410.16;4967904;28;20027;-74
2022/10/02 01:15:15;;;;;;;9.60;1.90;;;10.40;99.90;;;9.18;100.00;100411.81;4969250;28;20042;-76
2022/10/02 01:17:41;;;;;;;8.52;1.85;;;10.50;99.90;;;9.25;100.00;100401.75;4964086;28;20118;-75
2022/10/02 01:20:18;;;;;;;12.43;1.70;;;10.50;99.90;;;9.32;100.00;100401.72;4964294;28;20577;-75
2022/10/02 01:23:04;;;;;;;9.68;1.98;;;10.60;99.90;;;9.42;100.00;100395.81;4967531;28;20027;-75
2022/10/02 01:25:30;;;;;;;7.57;1.65;;;10.70;99.90;;;9.37;100.00;100379.31;4967143;28;20074;-75
2022/10/02 01:27:56;;;;;;;6.85;1.67;;;10.80;99.90;;;9.44;100.00;100391.84;4968837;28;20026;-76
2022/10/02 01:30:22;;;;;;;9.35;1.77;;;10.80;99.90;;;9.49;100.00;100402.06;4969151;28;20037;-75
2022/10/02 01:33:02;;;;;;;10.90;1.85;;;10.80;99.90;;;9.51;100.00;100405.41;4964099;28;20117;-75
2022/10/02 01:35:34;;;;;;;8.88;1.73;;;10.80;99.90;;;9.51;100.00;100399.97;4960734;28;20043;-75
2022/10/02 01:38:11;;;;;;;6.78;1.50;;;10.80;99.90;;;9.50;100.00;100398.31;4965169;28;20323;-74
2022/10/02 01:40:39;;;;;;;9.57;2.00;;;10.80;99.90;;;9.44;100.00;100400.03;4961505;28;20096;-74
2022/10/02 01:43:13;;;;;;;9.57;1.77;;;10.80;99.90;;;9.41;100.00;100407.78;4969598;28;20038;-74
2022/10/02 01:46:26;;;;;;;9.93;2.00;;;10.70;99.90;;;9.33;100.00;100414.28;4966874;28;20073;-74
2022/10/02 01:49:23;;;;;;;6.53;2.08;;;10.70;99.90;;;9.26;100.00;100413.47;4968463;28;20038;-75
2022/10/02 01:52:31;;;;;;;8.10;1.88;;;10.60;99.90;;;9.20;100.00;100407.00;4962510;28;20059;-75
2022/10/02 01:55:26;;;;;;;9.23;1.80;;;10.60;99.90;;;9.12;100.00;100413.50;4964829;28;20478;-73
2022/10/02 01:58:29;;;;;;;10.32;1.90;;;10.50;99.90;;;9.04;100.00;100417.31;4968668;28;20093;-76
2022/10/02 02:01:23;;;;;;;10.20;2.35;;;10.40;99.90;;;8.88;100.00;100409.56;4968759;28;20126;-76
2022/10/02 02:04:10;;;;;;;8.38;2.22;;;10.30;99.90;;;8.88;100.00;100415.03;4968001;28;20629;-76
2022/10/02 02:07:08;;;;;;;9.63;2.03;;;10.30;99.90;;;8.94;100.00;100411.44;4963966;28;20470;-75
2022/10/02 02:09:46;;;;;;;9.23;2.08;;;10.20;99.90;;;8.89;100.00;100414.81;4966349;28;20046;-74
2022/10/02 02:12:32;;;;;;;10.38;2.40;;;10.20;99.90;;;8.91;100.00;100417.31;4960999;28;20134;-76
2022/10/02 02:15:11;;;;;;;10.38;2.20;;;10.20;99.90;;;8.84;100.00;100411.88;4968765;28;20065;-75
2022/10/02 02:17:56;;;;;;;9.73;2.60;;;10.20;99.90;;;8.94;100.00;100416.06;4965167;28;20077;-75
2022/10/02 02:20:33;;;;;;;11.05;2.75;;;10.20;99.90;;;8.88;100.00;100406.84;4959715;28;20027;-75
2022/10/02 02:23:09;;;;;;;13.05;3.00;;;10.20;99.90;;;8.82;100.00;100399.53;4965619;28;20402;-75
2022/10/02 02:25:42;;;;;;;8.57;3.00;;;10.20;99.90;;;8.86;100.00;100403.50;4962377;28;20574;-74
2022/10/02 02:28:13;;;;;;;10.05;3.50;;;10.20;99.90;;;8.91;100.00;100407.28;4967850;28;20039;-75
2022/10/02 02:30:47;;;;;;;10.70;3.20;;;10.30;99.90;;;8.90;100.00;100402.03;4966241;28;20386;-75
2022/10/02 02:33:41;;;;;;;11.40;3.17;;;10.20;99.90;;;8.92;100.00;100406.22;4967851;28;20050;-75
2022/10/02 02:36:15;;;;;;;11.88;3.83;;;10.20;99.90;;;8.93;100.00;100409.78;4964342;28;20034;-75
2022/10/02 02:38:59;;;;;;;11.27;3.88;;;10.20;99.90;;;8.86;100.00;100403.50;4962820;28;20050;-75
2022/10/02 02:41:31;;;;;;;15.80;4.15;;;10.20;99.90;;;8.90;100.00;100408.34;4964563;28;20070;-76
2022/10/02 02:44:13;;;;;;;14.43;4.20;;;10.30;99.90;;;8.86;100.00;100414.41;4967638;28;20030;-76
2022/10/02 02:47:10;;;;;;;13.27;4.15;;;10.20;99.90;;;8.90;100.00;100416.50;4965763;28;20045;-75
2022/10/02 02:49:48;;;;;;;18.48;5.25;;;10.20;99.90;;;8.98;100.00;100412.69;4964448;28;20033;-75
2022/10/02 02:52:26;;;;;;;20.25;5.25;;;10.30;99.90;;;8.96;100.00;100417.50;4963586;28;20406;-74
2022/10/02 02:55:17;;;;;;;16.52;4.97;;;10.30;99.90;;;8.99;100.00;100430.69;4967370;28;20070;-75
2022/10/02 02:57:56;;;;;;;17.00;5.22;;;10.30;99.90;;;8.95;100.00;100413.13;4962889;28;20113;-75
2022/10/02 03:00:23;;;;;;;14.68;5.43;;;10.30;99.90;;;9.06;100.00;100415.19;4966008;28;20042;-75
2022/10/02 03:02:53;;;;;;;17.23;6.50;;;10.40;99.90;;;9.01;100.00;100414.97;4958886;28;20027;-75
2022/10/02 03:05:21;;;;;;;19.13;6.40;;;10.40;99.90;;;9.14;100.00;100433.16;4962023;28;20481;-76
2022/10/02 03:08:00;;;;;;;18.95;6.78;;;10.40;99.90;;;9.19;100.00;100427.94;4967414;28;20019;-74
2022/10/02 03:10:50;;;;;;;18.35;6.85;;;10.50;99.90;;;9.17;100.00;100437.38;4965425;28;20110;-76
2022/10/02 03:13:33;;;;;;;18.85;7.10;;;10.50;99.90;;;9.28;100.00;100430.44;4966398;28;20019;-75
2022/10/02 03:16:26;;;;;;;20.60;7.93;;;10.60;99.90;;;9.34;100.00;100432.28;4962121;28;20513;-75
2022/10/02 03:19:18;;;;;;;19.25;8.77;;;10.60;99.90;;;9.36;100.00;100432.91;4960276;28;20038;-75
2022/10/02 03:22:11;;;;;;;23.90;8.35;;;10.70;99.90;;;9.39;100.00;100435.19;4966766;28;20097;-75
2022/10/02 03:25:16;;;;;;;23.58;8.07;;;10.70;99.90;;;9.33;100.00;100434.19;4961536;28;20485;-75
2022/10/02 03:27:56;;;;;;;20.92;9.50;;;10.70;99.90;;;9.28;100.00;100425.84;4961337;28;20918;-75
2022/10/02 03:30:23;;;;;;;18.98;9.15;;;10.60;99.90;;;9.26;100.00;100437.97;4960878;28;20027;-75
2022/10/02 03:32:52;;;;;;;24.60;9.50;;;10.60;99.90;;;9.10;100.00;100425.66;4960992;28;20034;-76
2022/10/02 03:35:22;;;;;;;25.38;9.63;;;10.60;99.90;;;9.25;100.00;100439.84;4964677;28;20039;-75
2022/10/02 03:37:55;;;;;;;26.05;8.98;;;10.60;99.90;;;9.32;100.00;100440.69;4967571;28;20405;-75
2022/10/02 03:40:25;;;;;;;20.20;9.05;;;10.60;99.90;;;9.42;100.00;100442.97;4966328;28;20035;-76
2022/10/02 03:42:52;;;;;;;20.85;10.27;;;10.70;99.90;;;9.49;100.00;100432.88;4964857;28;20118;-75
2022/10/02 03:45:18;;;;;;;17.67;10.88;;;10.80;99.90;;;9.55;100.00;100441.22;4960909;28;20109;-75
2022/10/02 03:47:45;;;;;;;21.45;10.07;;;10.80;99.90;;;9.60;100.00;100445.00;4962662;28;20043;-75
2022/10/02 03:50:14;;;;;;;23.50;10.60;;;10.90;99.90;;;9.65;100.00;100444.31;4962389;28;20474;-74
2022/10/02 03:52:41;;;;;;;24.58;10.88;;;11.00;99.90;;;9.72;100.00;100445.16;4966023;28;20387;-76
2022/10/02 03:55:31;;;;;;;27.40;10.90;;;11.00;99.90;;;9.81;100.00;100434.00;4965667;28;20077;-76
2022/10/02 03:57:58;;;;;;;21.75;10.80;;;11.10;99.90;;;9.89;100.00;100436.47;4965460;28;20332;-77
2022/10/02 04:00:37;;;;;;;17.30;10.13;;;11.20;99.90;;;9.87;100.00;100423.09;4964505;28;20117;-76
2022/10/02 04:03:26;;;;;;;28.60;10.75;;;11.20;99.90;;;9.96;100.00;100422.81;4962590;28;20257;-76
2022/10/02 04:06:34;;;;;;;23.08;11.18;;;11.30;99.90;;;9.97;100.00;100421.75;4959836;28;20066;-76
2022/10/02 04:09:28;;;;;;;19.30;10.07;;;11.30;99.90;;;10.05;100.00;100418.78;4979544;28;20046;-76
2022/10/02 04:12:07;;;;;;;25.92;10.90;;;11.40;99.90;;;10.08;100.00;100421.09;4966868;28;20027;-76
2022/10/02 04:15:15;;;;;;;26.80;11.07;;;11.40;99.90;;;10.11;100.00;100415.19;4964371;28;20030;-76
2022/10/02 04:17:52;;;;;;;21.70;10.90;;;11.50;99.90;;;10.17;100.00;100422.47;4962217;28;20382;-76
2022/10/02 04:20:25;;;;;;;24.30;10.93;;;11.50;99.90;;;10.25;100.00;100431.44;4962515;28;20607;-76
2022/10/02 04:23:06;;;;;;;21.58;11.32;;;11.60;99.90;;;10.29;100.00;100432.66;4962814;28;20054;-76
2022/10/02 04:25:40;;;;;;;21.92;10.63;;;11.60;99.90;;;10.29;100.00;100441.69;4959647;28;20038;-75
2022/10/02 04:28:25;;;;;;;20.70;10.52;;;11.60;99.90;;;10.27;100.00;100441.09;4966296;28;20023;-75
2022/10/02 04:30:53;;;;;;;19.33;10.45;;;11.60;99.90;;;10.27;100.00;100437.50;4964487;28;20065;-75
2022/10/02 04:33:22;;;;;;;21.42;10.95;;;11.60;99.90;;;10.29;100.00;100452.59;4957145;28;20482;-75
2022/10/02 04:36:30;;;;;;;21.48;10.63;;;11.60;99.90;;;10.28;100.00;100447.38;4962405;28;20057;-76
2022/10/02 04:39:48;;;;;;;23.77;10.70;;;11.60;99.90;;;10.26;100.00;100449.47;4964268;28;20081;-74
2022/10/02 04:42:26;;;;;;;21.73;10.75;;;11.60;99.90;;;10.33;100.00;100458.44;4966083;28;20249;-76
2022/10/02 04:45:27;;;;;;;24.40;11.27;;;11.60;99.90;;;10.38;100.00;100464.09;4966404;28;20181;-76
2022/10/02 04:48:32;;;;;;;24.00;10.93;;;11.70;99.90;;;10.43;100.00;100477.94;4962509;28;20069;-74
2022/10/02 04:51:22;;;;;;;23.77;12.25;;;11.80;99.90;;;10.52;100.00;100480.38;4973615;28;20097;-75
2022/10/02 04:54:44;;;;;;;25.65;12.50;;;11.80;99.90;;;10.55;100.00;100474.47;4961018;28;20030;-76
2022/10/02 04:57:31;;;;;;;23.73;12.02;;;11.90;99.90;;;10.53;100.00;100473.88;4996317;28;20420;-73
2022/10/02 05:00:21;;;;;;;25.40;12.75;;;11.90;99.90;;;10.40;100.00;100455.69;4964459;28;21055;-75
2022/10/02 05:03:24;;;;;;;23.27;12.15;;;11.80;99.90;;;10.48;100.00;100482.72;4963378;28;20034;-75
2022/10/02 05:06:22;;;;;;;22.63;13.20;;;11.80;99.90;;;10.42;100.00;100492.63;4963736;28;20045;-76
2022/10/02 05:09:39;;;;;;;28.52;13.98;;;11.70;99.90;;;10.31;100.00;100499.56;4958916;28;20034;-78
2022/10/02 05:12:33;;;;;;;30.10;14.43;;;11.70;99.90;;;10.16;100.00;100501.75;4960165;28;20042;-76
2022/10/02 05:15:21;;;;;;;28.67;15.05;;;11.60;99.90;;;10.16;100.00;100496.28;4964947;28;20421;-76
2022/10/02 05:18:05;;;;;;;31.50;16.52;;;11.50;99.90;;;10.09;100.00;100471.81;4965435;28;20109;-76
2022/10/02 05:21:04;;;;;;;30.25;15.52;;;11.50;99.90;;;10.03;100.00;100464.50;4963100;28;20085;-76
2022/10/02 05:24:21;;;;;;;31.95;16.00;;;11.50;99.90;;;10.07;100.00;100482.06;4964026;28;20062;-75
2022/10/02 05:27:12;;;;;;;27.90;15.45;;;11.40;99.90;;;10.00;100.00;100473.09;4960949;28;20605;-77
2022/10/02 05:30:17;;;;;;;30.92;15.27;;;11.40;99.90;;;9.99;100.00;100482.34;4962078;28;20039;-74
2022/10/02 05:33:07;;;;;;;37.85;17.00;;;11.40;99.90;;;9.93;100.00;100476.72;4965498;28;20047;-75
2022/10/02 05:36:02;;;;;;;30.85;16.70;;;11.30;99.90;;;9.83;100.00;100480.94;4963683;28;20521;-75
2022/10/02 05:38:59;;;;;;;29.50;16.73;;;11.20;99.90;;;9.80;100.00;100484.91;4959575;28;20058;-75
2022/10/02 05:41:30;;;;;;;30.52;16.88;;;11.20;99.90;;;9.76;100.00;100483.69;4960857;28;20064;-74
2022/10/02 05:44:11;;;;;;;39.30;17.77;;;11.10;99.90;;;9.72;100.00;100477.00;4964788;28;20070;-75
2022/10/02 05:47:11;;;;;;;40.83;18.50;;;11.10;99.90;;;9.67;100.00;100490.44;4960227;28;20508;-76
2022/10/02 05:49:47;;;;;;;40.80;17.50;;;11.10;99.90;;;9.67;100.00;100490.44;4962334;28;20034;-75
2022/10/02 05:52:21;;;;;;;39.67;20.17;;;11.00;99.90;;;9.61;100.00;100492.97;4960949;28;20396;-76
2022/10/02 05:55:06;;;;;;;33.28;18.77;;;11.00;99.90;;;9.59;100.00;100499.66;4957583;28;20480;-75
2022/10/02 05:57:53;;;;;;;41.45;18.70;;;10.90;99.90;;;9.66;100.00;100502.38;4965088;28;20090;-75
2022/10/02 06:00:25;;;;;;;40.70;20.90;;;10.90;99.90;;;9.66;100.00;100502.38;4961621;28;20038;-75
2022/10/02 06:03:16;;;;;;;38.03;21.17;;;11.00;99.90;;;9.63;100.00;100499.03;4968267;28;20122;-76
2022/10/02 06:06:06;;;;;;;42.70;20.65;;;11.00;99.90;;;9.71;100.00;100502.56;4964405;28;20027;-75
2022/10/02 06:08:39;;;;;;;45.88;20.70;;;11.00;99.90;;;9.71;100.00;100497.97;4963487;28;21091;-75
2022/10/02 06:11:37;;;;;;;41.30;20.58;;;11.10;99.90;;;9.81;100.00;100499.41;4968230;28;20109;-76
2022/10/02 06:14:20;;;;;;;41.47;20.50;;;11.20;99.90;;;9.86;100.00;100499.56;4965587;28;20121;-75
2022/10/02 06:17:06;;;;;;;41.55;21.13;;;11.20;99.90;;;9.90;100.00;100500.81;4964660;28;20050;-77
2022/10/02 06:19:56;;;;;;;43.55;21.50;;;11.30;99.90;;;9.99;100.00;100502.25;4962340;28;20039;-76
2022/10/02 06:22:38;;;;;;;44.22;22.08;;;11.30;99.90;;;10.08;100.00;100497.41;4966237;28;20130;-77
2022/10/02 06:25:26;;;;;;;48.70;21.65;;;11.40;99.90;;;10.15;100.00;100503.66;4966881;28;20046;-76
2022/10/02 06:28:21;;;;;;;46.72;21.30;;;11.50;99.90;;;10.17;100.00;100501.53;4964974;28;20486;-77
2022/10/02 06:30:57;;;;;;;43.10;18.85;;;11.50;99.90;;;10.18;100.00;100488.72;4977511;28;20030;-76
2022/10/02 06:33:29;;;;;;;39.20;20.02;;;11.50;99.90;;;10.17;100.00;100489.78;4965553;28;20178;-76
2022/10/02 06:36:20;;;;;;;31.52;18.00;;;11.50;99.90;;;10.09;100.00;100490.91;4965424;28;20446;-77
2022/10/02 06:39:15;;;;;;;28.67;17.58;;;11.50;99.90;;;10.08;100.00;100497.41;4962080;28;20513;-77
2022/10/02 06:42:31;;;;;;;37.17;18.35;;;11.40;99.90;;;10.04;100.00;100501.59;4957972;28;20591;-76
2022/10/02 06:45:38;;;;;;;36.97;18.02;;;11.40;99.90;;;10.06;100.00;100507.66;4963170;28;20524;-78
2022/10/02 06:48:39;;;;;;;40.20;17.30;;;11.40;99.90;;;10.16;100.00;100515.38;4964678;28;20122;-79
2022/10/02 06:51:23;;;;;;;36.88;16.58;;;11.50;99.90;;;10.30;100.00;100516.13;4961419;28;20059;-80
2022/10/02 06:54:31;;;;;;;36.72;17.48;;;11.60;99.90;;;10.42;100.00;100514.44;4958705;28;20028;-79
2022/10/02 06:58:00;;;;;;;37.33;17.08;;;11.80;99.90;;;10.54;100.00;100524.63;4967488;28;20085;-79
2022/10/02 07:00:26;;;;;;;31.67;17.27;;;11.90;99.90;;;10.55;100.00;100518.97;4962897;28;20089;-78
2022/10/02 07:03:44;;;;;;;35.30;16.50;;;11.90;99.90;;;10.67;100.00;100521.00;4962386;28;20043;-77
2022/10/02 07:06:28;;;;;;;31.20;15.10;;;12.00;99.90;;;10.78;100.00;100510.19;4957450;28;20125;-77
2022/10/02 07:09:33;;;;;;;30.05;15.52;;;12.10;99.90;;;10.87;100.00;100510.75;4966208;28;20057;-78
2022/10/02 07:12:56;;;;;;;33.38;14.63;;;12.20;99.90;;;11.08;100.00;100525.91;4965492;28;20097;-80
2022/10/02 07:16:06;;;;;;;27.77;13.73;;;12.40;99.90;;;11.39;100.00;100526.06;4965893;28;20043;-79
2022/10/02 07:19:13;;;;;;;31.48;14.23;;;12.60;99.90;;;11.58;100.00;100520.63;4963604;28;20042;-77
2022/10/02 07:22:22;;;;;;;26.42;11.90;;;12.80;99.90;;;11.51;100.00;100523.41;4964702;28;20042;-78
2022/10/02 07:25:43;;;;;;;22.98;11.68;;;12.90;99.90;;;11.55;100.00;100529.28;4961614;28;20037;-79
2022/10/02 07:28:37;;;;;;;26.67;10.32;;;12.90;99.90;;;11.50;100.00;100532.69;4962462;28;20038;-78
2022/10/02 07:31:40;;;;;;;17.67;9.00;;;12.90;99.90;;;11.39;100.00;100522.47;4957033;28;20129;-78
2022/10/02 07:34:39;;;;;;;20.75;8.68;;;12.80;99.90;;;11.33;100.00;100525.06;4948401;28;20039;-79
2022/10/02 07:37:25;;;;;;;18.27;8.65;;;12.70;99.90;;;11.33;100.00;100533.25;4960914;28;20035;-78
2022/10/02 07:40:01;;;;;;;25.73;9.00;;;12.60;99.90;;;11.41;100.00;100543.06;4961402;28;20045;-78
2022/10/02 07:43:06;;;;;;;23.08;8.48;;;12.70;99.90;;;11.55;100.00;100546.50;4961937;28;20045;-80
2022/10/02 07:45:34;;;;;;;17.30;8.82;;;12.80;99.90;;;11.57;100.00;100541.63;4963085;28;20039;-80
2022/10/02 07:48:33;;;;;;;24.30;9.30;;;12.90;99.90;;;11.66;100.00;100556.66;4963834;28;20027;-80
2022/10/02 07:54:35;;;;;;;20.02;8.90;;;13.10;99.90;;;12.05;100.00;100570.16;4958984;28;20035;-80
2022/10/02 07:57:31;;;;;;;15.25;8.13;;;13.30;99.90;;;12.45;100.00;100577.00;4959005;28;20035;-78
2022/10/02 08:00:14;;;;;;;16.98;7.03;;;13.60;99.90;;;12.61;100.00;100572.81;4967037;28;20035;-79
2022/10/02 08:03:11;;;;;;;20.17;6.38;;;13.90;99.90;;;12.73;100.00;100581.06;4964835;28;20038;-76
2022/10/02 08:05:52;;;;;;;18.60;6.25;;;14.00;99.90;;;12.73;100.00;100574.75;4958728;28;20168;-78
2022/10/02 08:08:37;;;;;;;14.68;5.10;;;14.10;99.90;;;12.92;100.00;100580.97;4959452;28;20027;-81
2022/10/02 08:11:30;;;;;;;14.13;5.15;;;14.20;99.90;;;13.17;100.00;100585.44;4959464;28;20035;-76
2022/10/02 08:14:14;;;;;;;18.33;5.10;;;14.50;99.90;;;13.47;100.00;100588.13;4950407;28;20042;-76
2022/10/02 08:16:53;;;;;;;13.43;4.90;;;14.80;99.90;;;13.73;100.00;100583.25;4957414;28;20211;-77
2022/10/02 08:19:44;;;;;;;;;;;15.10;99.90;;;13.92;100.00;100594.06;4963890;28;20053;-76
2022/10/02 08:22:39;;;;;;;13.57;4.50;;;15.30;99.90;;;14.10;100.00;100580.19;4961532;28;19968;-75
2022/10/02 08:25:35;;;;;;;16.23;4.78;;;15.50;99.90;;;14.29;100.00;100582.78;4972011;28;20038;-76
2022/10/02 08:28:10;;;;;;;17.50;5.03;;;15.70;99.90;;;14.33;100.00;100585.88;4958879;28;20065;-75
2022/10/02 08:30:37;;;;;;;11.30;3.30;;;15.80;99.90;;;14.21;99.10;100578.50;4962084;28;20406;-77
2022/10/02 08:33:17;;;;;;;13.73;4.63;;;15.70;99.90;;;14.48;100.00;100597.16;4963829;28;20026;-76
2022/10/02 08:36:15;;;;;;;14.95;4.20;;;15.80;99.90;;;14.61;99.35;100597.94;4963213;28;20035;-76
2022/10/02 08:38:48;;;;;;;15.35;4.03;;;15.90;99.90;;;14.38;97.96;100577.75;4960037;28;20031;-77
2022/10/02 08:41:46;;;;;;;10.68;3.30;;;15.90;99.90;;;14.29;96.61;100607.47;4962696;28;21054;-75
2022/10/02 08:44:38;;;;;;;15.32;3.25;;;15.80;99.90;;;13.90;97.92;100607.19;4959012;28;20589;-78
2022/10/02 08:48:05;;;;;;;11.77;3.70;;;15.50;99.90;;;13.90;100.00;100616.25;4972797;28;20050;-77
2022/10/02 08:51:16;;;;;;;13.60;3.25;;;15.40;99.90;;;14.22;96.71;100618.59;4976811;28;20034;-77
2022/10/02 08:53:47;;;;;;;16.30;3.78;;;15.70;99.90;;;14.48;95.56;100616.38;4979834;28;20045;-75
2022/10/02 08:57:07;;;;;;;10.30;3.30;;;15.80;99.90;;;14.46;94.78;100620.44;4966650;28;20445;-75
2022/10/02 09:00:05;;;;;;;13.85;3.30;;;16.00;99.90;;;14.65;93.31;100621.91;4957324;28;20520;-78
2022/10/02 09:03:29;;;;;;;10.40;2.80;;;16.10;99.90;;;14.59;89.64;100587.22;4968058;28;20050;-77
2022/10/02 09:06:35;;;;;;;9.30;2.78;;;16.20;99.90;;;15.07;86.84;100629.03;4981153;28;20118;-75
2022/10/02 09:09:19;;;;;;;10.82;3.30;;;16.30;99.90;;;14.93;84.17;100616.69;4965899;28;20114;-76
2022/10/02 09:11:59;;;;;;;9.10;2.47;;;16.50;99.90;;;14.68;86.68;100626.09;4960323;28;20034;-75
2022/10/02 09:14:49;;;;;;;10.63;2.30;;;16.20;99.90;;;14.56;84.89;100615.16;4969339;28;20038;-73
2022/10/02 09:17:54;;;;;;;10.35;3.00;;;16.10;99.90;;;14.77;85.14;100626.56;4955855;28;20050;-75
2022/10/02 09:20:46;;;;;;;11.15;2.90;;;16.20;99.90;;;15.03;83.43;100630.59;4966388;28;20043;-75
2022/10/02 09:23:49;;;;;;;16.45;3.33;;;16.30;99.90;;;14.88;83.12;100608.38;4962649;28;20046;-75
2022/10/02 09:26:23;;;;;;;11.73;2.60;;;16.30;99.90;;;15.13;80.55;100618.97;4958916;28;20034;-77
2022/10/02 09:29:33;;;;;;;12.15;2.95;;;16.40;99.90;;;15.33;79.60;100623.97;4957440;28;20070;-76
2022/10/02 09:32:41;;;;;;;11.65;2.65;;;16.70;99.90;;;15.24;78.79;100623.53;4960480;28;20042;-78
2022/10/02 09:35:33;;;;;;;11.07;2.17;;;16.80;99.90;;;15.06;79.51;100626.53;4963963;28;20561;-75
2022/10/02 09:38:44;;;;;;;11.65;2.75;;;16.50;99.90;;;15.26;80.38;100620.56;4961615;28;20096;-75
2022/10/02 09:41:49;;;;;;;15.25;2.47;;;16.60;99.90;;;15.78;78.44;100630.47;4956565;28;20047;-76
2022/10/02 09:45:02;;;;;;;7.53;2.15;;;17.40;99.90;;;15.91;74.24;100632.06;4958686;28;20144;-77
2022/10/02 09:48:03;;;;;;;12.25;2.13;;;17.90;99.90;;;15.59;72.56;100629.88;4957624;28;20038;-73
2022/10/02 09:51:23;;;;;;;11.02;2.05;;;18.00;99.90;;;15.56;71.55;100622.13;4955629;28;20034;-80
2022/10/02 09:54:32;;;;;;;10.50;2.50;;;17.80;99.90;;;16.17;70.40;100624.13;4961080;28;20042;-76
2022/10/02 09:57:35;;;;;;;7.47;2.13;;;18.30;99.90;;;16.92;66.97;100642.06;4961841;28;20023;-77
2022/10/02 10:00:37;;;;;;;6.80;2.10;;;18.50;99.90;;;18.71;61.27;100633.66;4969059;28;20051;-77
2022/10/02 10:03:47;;;;;;;8.70;2.22;;;19.70;99.20;;;19.14;58.44;100639.03;4959631;28;20047;-75
2022/10/02 10:07:12;;;;;;;8.43;1.92;;;20.00;97.10;;;19.51;55.02;100636.00;4962833;28;20058;-76
2022/10/02 10:10:36;;;;;;;8.55;1.80;;;20.90;92.20;;;20.36;53.88;100638.31;4963589;28;20027;-77
2022/10/02 10:13:33;;;;;;;10.52;2.42;;;21.50;91.70;;;20.31;52.98;100630.03;4968598;28;20042;-77
2022/10/02 10:16:18;;;;;;;7.07;1.65;;;22.10;88.80;;;20.80;52.98;100650.59;4954489;28;20050;-74
2022/10/02 10:19:22;;;;;;;8.35;2.05;;;21.40;90.80;;;19.75;52.50;100654.78;4960361;28;20061;-77
2022/10/02 10:22:05;;;;;;;6.72;1.60;;;21.60;90.00;;;16.29;60.19;100645.22;4963252;28;20038;-76
2022/10/02 10:25:11;;;;;;;7.70;2.00;;;19.10;90.30;;;15.90;64.92;100646.88;4964263;28;20126;-79
2022/10/02 10:27:55;;;;;;;7.88;1.80;;;17.90;96.10;;;17.12;63.43;100660.78;4959985;28;20461;-76
2022/10/02 10:30:55;;;;;;;7.15;1.65;;;18.00;97.90;;;17.24;60.66;100660.63;4962041;28;20085;-75
2022/10/02 10:33:48;;;;;;;6.03;1.88;;;18.80;94.90;;;17.14;59.90;100655.84;4964675;28;20034;-75
2022/10/02 10:40:48;;;;;;;9.52;1.80;;;18.80;94.10;;;20.02;51.42;100661.13;4963585;28;20066;-76
2022/10/02 10:43:50;;;;;;;12.25;3.40;;;20.80;89.00;;;18.50;52.77;100662.03;4956643;28;20050;-76
2022/10/02 10:47:14;;;;;;;13.43;4.68;;;21.10;86.10;;;17.26;57.76;100661.19;4959845;28;20065;-76
2022/10/02 10:50:14;;;;;;;8.10;1.42;;;19.50;91.40;;;17.18;57.05;100665.25;4959899;28;20022;-76
2022/10/02 10:53:57;;;;;;;11.18;1.98;;;19.10;91.30;;;17.06;59.88;100659.91;4993400;28;20066;-75
2022/10/02 10:56:41;;;;;;;9.35;2.25;;;18.80;93.00;;;17.32;58.47;100649.13;4941187;28;20038;-74
2022/10/02 10:59:49;;;;;;;7.85;2.50;;;18.40;93.40;;;19.91;50.16;100660.31;4965476;28;20042;-77
2022/10/02 11:02:39;;;;;;;5.82;1.92;;;20.20;89.00;;;18.04;54.94;100661.81;4962024;28;20042;-76
2022/10/02 11:05:21;;;;;;;8.60;1.60;;;20.10;90.10;;;16.17;61.69;100654.41;4963788;28;20042;-76
2022/10/02 11:08:42;;;;;;;8.05;1.95;;;18.30;92.90;;;16.86;60.73;100659.66;4961706;28;20035;-76
2022/10/02 11:11:58;;;;;;;8.15;1.60;;;18.40;94.00;;;19.00;54.06;100647.84;4962614;28;20127;-75
2022/10/02 11:14:39;;;;;;;6.07;1.98;;;19.10;93.50;;;22.14;47.67;100657.03;4963355;28;20493;-76
2022/10/02 11:17:30;;;;;;;5.32;1.17;;;;;;;22.68;45.74;100641.13;4966559;28;20130;-76
2022/10/02 11:20:28;;;;;;;7.78;1.90;;;;;;;23.00;44.49;100649.81;4963926;28;20038;-75
2022/10/02 11:23:12;;;;;;;7.65;1.60;;;;;;;21.39;45.33;100659.09;4962994;28;20031;-77
2022/10/02 11:25:58;;;;;;;6.43;1.65;;;;;;;21.84;46.86;100661.78;4962227;28;20071;-75
2022/10/02 11:28:51;;;;;;;8.88;1.90;;;22.00;88.50;;;19.75;51.40;100646.47;4960815;28;20415;-76
2022/10/02 11:31:49;;;;;;;10.80;2.00;;;22.60;78.70;;;17.74;56.35;100650.28;4958809;28;20205;-77
2022/10/02 11:34:39;;;;;;;11.95;1.90;;;20.30;85.70;;;16.49;60.77;100637.22;4957750;28;20454;-73
2022/10/02 11:37:30;;;;;;;9.85;1.98;;;18.80;90.90;;;16.20;63.60;100653.06;4962385;28;20653;-77
2022/10/02 11:40:33;;;;;;;10.98;2.10;;;17.90;94.30;;;14.72;72.67;100664.88;4962637;28;20034;-79
2022/10/02 11:43:39;;;;;;;13.48;6.03;;;16.70;99.80;;;13.74;90.87;100689.09;4956824;28;20042;-85
2022/10/02 11:46:53;;;;;;;15.07;5.20;;;15.40;99.90;;;12.95;100.00;100684.56;4966178;28;20042;-80